Time;durP1;ratioP1;P1;durP2;ratioP2;P2;SDS_P1;SDS_P2;PMS_P1;PMS_P2;Temp;Humidity;BMP_temperature;BMP_pressure;BME280_temperature;BME280_humidity;BME280_pressure;Samples;Min_cycle;Max_cycle;Signal;HPM_P1;HPM_P2
2020/12/31 00:00:49;;;;;;;;;;;;;;;23.12;32.83;99732.03;5020160;28;1598;-58
2020/12/31 00:03:14;;;;;;;;;;;;;;;23.12;32.45;99742.72;5021251;28;1293;-55
2020/12/31 00:05:39;;;;;;;;;;;;;;;23.13;32.82;99727.47;5022824;28;1376;-56
2020/12/31 00:08:04;;;;;;;;;;;;;;;23.12;32.48;99737.38;5021198;28;1397;-58
2020/12/31 00:10:30;;;;;;;;;;;;;;;23.12;32.49;99733.88;5020716;28;1253;-57
2020/12/31 00:12:56;;;;;;;;;;;;;;;23.12;32.60;99737.38;5024179;28;1898;-58
2020/12/31 00:15:21;;;;;;;;;;;;;;;23.12;32.72;99740.03;5018592;28;1402;-54
2020/12/31 00:17:46;;;;;;;;;;;;;;;23.12;32.55;99733.88;5024979;28;1109;-56
2020/12/31 00:20:11;;;;;;;;;;;;;;;23.11;32.42;99727.72;5018399;28;1156;-57
2020/12/31 00:22:36;;;;;;;;;;;;;;;23.11;32.52;99722.38;5019972;28;1070;-58
2020/12/31 00:25:04;;;;;;;;;;;;;;;23.12;32.68;99732.03;5020102;28;1283;-57
2020/12/31 00:27:29;;;;;;;;;;;;;;;23.12;32.50;99724.00;5023575;28;1083;-56
2020/12/31 00:29:54;;;;;;;;;;;;;;;23.12;32.54;99721.34;5019092;28;1390;-58
2020/12/31 00:32:19;;;;;;;;;;;;;;;23.12;32.40;99718.66;5020410;28;1894;-57
2020/12/31 00:34:44;;;;;;;;;;;;;;;23.12;32.64;99720.50;5020472;28;1292;-56
2020/12/31 00:37:09;;;;;;;;;;;;;;;23.12;32.30;99728.53;5021470;28;1067;-56
2020/12/31 00:39:35;;;;;;;;;;;;;;;23.12;32.28;99717.84;5027045;28;1420;-56
2020/12/31 00:42:00;;;;;;;;;;;;;;;23.12;32.58;99713.31;5019948;28;1091;-57
2020/12/31 00:44:25;;;;;;;;;;;;;;;23.11;32.51;99708.19;5023042;28;1309;-54
2020/12/31 00:46:50;;;;;;;;;;;;;;;23.12;32.46;99710.63;5019995;28;1113;-57
2020/12/31 00:49:15;;;;;;;;;;;;;;;23.11;32.23;99711.69;5022028;28;980;-57
2020/12/31 00:51:41;;;;;;;;;;;;;;;23.11;32.29;99708.19;5026020;28;1910;-57
2020/12/31 00:54:06;;;;;;;;;;;;;;;23.12;32.33;99705.28;5020548;28;1299;-55
2020/12/31 00:56:31;;;;;;;;;;;;;;;23.12;32.26;99709.81;5019949;28;1162;-58
2020/12/31 00:58:56;;;;;;;;;;;;;;;23.11;32.24;99710.84;5020657;28;995;-57
2020/12/31 01:01:21;;;;;;;;;;;;;;;23.11;32.39;99709.00;5023483;28;1196;-57
2020/12/31 01:03:47;;;;;;;;;;;;;;;23.11;32.52;99710.84;5016608;28;1272;-58
2020/12/31 01:06:12;;;;;;;;;;;;;;;23.12;32.30;99712.47;5025506;28;1129;-58
2020/12/31 01:08:37;;;;;;;;;;;;;;;23.12;32.15;99704.47;5019291;28;1038;-58
2020/12/31 01:11:03;;;;;;;;;;;;;;;23.10;32.36;99698.53;5019754;28;1953;-57
2020/12/31 01:13:29;;;;;;;;;;;;;;;23.12;32.07;99702.63;5023103;28;1256;-57
2020/12/31 01:15:54;;;;;;;;;;;;;;;23.12;32.38;99707.13;5017807;28;1188;-57
2020/12/31 01:18:19;;;;;;;;;;;;;;;23.11;32.32;99709.00;5023140;28;1144;-56
2020/12/31 01:20:45;;;;;;;;;;;;;;;23.12;32.15;99713.31;5020871;28;1101;-57
2020/12/31 01:23:10;;;;;;;;;;;;;;;23.11;32.15;99705.50;5024866;28;1053;-53
2020/12/31 01:25:35;;;;;;;;;;;;;;;23.12;32.08;99705.28;5019596;28;1197;-57
2020/12/31 01:28:00;;;;;;;;;;;;;;;23.10;32.04;99699.38;5020730;28;1122;-60
2020/12/31 01:30:26;;;;;;;;;;;;;;;23.10;32.04;99694.00;5020082;28;1023;-57
2020/12/31 01:32:51;;;;;;;;;;;;;;;23.11;31.91;99703.66;5023817;28;1918;-58
2020/12/31 01:35:17;;;;;;;;;;;;;;;23.10;32.24;99696.69;5021852;28;1288;-57
2020/12/31 01:37:42;;;;;;;;;;;;;;;23.12;32.28;99691.09;5019462;28;1004;-58
2020/12/31 01:40:07;;;;;;;;;;;;;;;23.10;31.94;99686.00;5019842;28;1126;-57
2020/12/31 01:42:32;;;;;;;;;;;;;;;23.11;31.91;99684.13;5022752;28;1454;-57
2020/12/31 01:44:58;;;;;;;;;;;;;;;23.11;32.14;99686.78;5020422;28;1378;-57
2020/12/31 01:47:23;;;;;;;;;;;;;;;23.11;32.03;99678.78;5019635;28;971;-56
2020/12/31 01:49:49;;;;;;;;;;;;;;;23.10;31.96;99683.31;5018422;28;1097;-58
2020/12/31 01:52:15;;;;;;;;;;;;;;;23.10;32.10;99688.66;5020060;28;1902;-57
2020/12/31 01:54:42;;;;;;;;;;;;;;;23.10;31.89;99677.97;5018834;28;1281;-58
2020/12/31 01:57:08;;;;;;;;;;;;;;;23.10;31.92;99683.31;5022874;28;1051;-58
2020/12/31 01:59:33;;;;;;;;;;;;;;;23.11;32.17;99678.78;5023903;28;1067;-58
2020/12/31 02:01:58;;;;;;;;;;;;;;;23.11;31.88;99670.75;5021694;28;1649;-58
2020/12/31 02:04:23;;;;;;;;;;;;;;;23.11;31.98;99682.28;5024734;28;1331;-54
2020/12/31 02:06:51;;;;;;;;;;;;;;;23.12;31.87;99688.44;5023257;28;1057;-55
2020/12/31 02:09:16;;;;;;;;;;;;;;;23.10;31.85;99675.31;5023713;28;1232;-57
2020/12/31 02:11:41;;;;;;;;;;;;;;;23.10;31.97;99672.63;5022996;28;1898;-56
2020/12/31 02:14:07;;;;;;;;;;;;;;;23.11;32.03;99665.41;5026777;28;1285;-57
2020/12/31 02:16:36;;;;;;;;;;;;;;;23.11;31.82;99668.09;5023218;28;1026;-54
2020/12/31 02:19:14;;;;;;;;;;;;;;;23.11;31.79;99665.41;5023735;28;1114;-55
2020/12/31 02:21:44;;;;;;;;;;;;;;;23.10;31.90;99661.94;5022542;28;1095;-57
2020/12/31 02:24:09;;;;;;;;;;;;;;;23.10;31.84;99661.94;5023851;28;1384;-55
2020/12/31 02:26:36;;;;;;;;;;;;;;;23.11;32.08;99658.22;5025136;28;1080;-57
2020/12/31 02:29:02;;;;;;;;;;;;;;;23.11;31.81;99666.25;5026462;28;1067;-57
2020/12/31 02:31:27;;;;;;;;;;;;;;;23.11;31.90;99660.06;5026711;28;1957;-58
2020/12/31 02:33:53;;;;;;;;;;;;;;;23.11;31.98;99662.72;5023480;28;1346;-56
2020/12/31 02:36:20;;;;;;;;;;;;;;;23.11;31.94;99663.56;5024888;28;1169;-58
2020/12/31 02:38:45;;;;;;;;;;;;;;;23.12;31.84;99659.03;5023177;28;1087;-56
2020/12/31 02:41:11;;;;;;;;;;;;;;;23.11;31.76;99660.91;5022971;28;1078;-57
2020/12/31 02:43:36;;;;;;;;;;;;;;;23.11;31.77;99663.56;5024655;28;1044;-58
2020/12/31 02:46:02;;;;;;;;;;;;;;;23.11;31.91;99654.72;5025560;28;1257;-58
2020/12/31 02:48:27;;;;;;;;;;;;;;;23.10;31.91;99655.75;5023586;28;1027;-58
2020/12/31 02:50:52;;;;;;;;;;;;;;;23.10;31.70;99655.75;5021292;28;1893;-58
2020/12/31 02:53:18;;;;;;;;;;;;;;;23.05;31.79;99640.44;5023009;28;1104;-57
2020/12/31 02:55:43;;;;;;;;;;;;;;;23.10;31.69;99656.59;5023373;28;1395;-58
2020/12/31 02:58:08;;;;;;;;;;;;;;;23.10;32.00;99661.94;5031888;28;1118;-58
2020/12/31 03:00:33;;;;;;;;;;;;;;;23.11;31.88;99647.53;5025311;28;1015;-54
2020/12/31 03:02:58;;;;;;;;;;;;;;;23.11;31.87;99650.19;5023421;28;1040;-56
2020/12/31 03:05:23;;;;;;;;;;;;;;;23.10;31.69;99645.91;5026064;28;1324;-54
2020/12/31 03:07:49;;;;;;;;;;;;;;;23.10;31.60;99635.19;5021100;28;1047;-56
2020/12/31 03:10:14;;;;;;;;;;;;;;;23.09;31.73;99641.59;5022256;28;1061;-58
2020/12/31 03:12:39;;;;;;;;;;;;;;;23.10;31.71;99626.34;5021610;28;1965;-54
2020/12/31 03:15:08;;;;;;;;;;;;;;;23.10;31.54;99623.69;5022018;28;1302;-54
2020/12/31 03:17:33;;;;;;;;;;;;;;;23.10;31.63;99632.53;5024015;28;989;-57
2020/12/31 03:19:58;;;;;;;;;;;;;;;23.10;31.71;99639.72;5019198;28;980;-55
2020/12/31 03:22:23;;;;;;;;;;;;;;;23.11;31.59;99641.34;5025317;28;1119;-55
2020/12/31 03:24:49;;;;;;;;;;;;;;;23.10;31.49;99640.56;5030791;28;1278;-58
2020/12/31 03:27:14;;;;;;;;;;;;;;;23.09;31.63;99622.88;5025199;28;1414;-57
2020/12/31 03:29:39;;;;;;;;;;;;;;;23.11;31.57;99622.63;5026255;28;1142;-58
2020/12/31 03:32:04;;;;;;;;;;;;;;;23.10;31.51;99619.16;5019773;28;1906;-57
2020/12/31 03:34:29;;;;;;;;;;;;;;;23.10;31.77;99613.00;5026010;28;1221;-58
2020/12/31 03:36:54;;;;;;;;;;;;;;;23.10;31.56;99618.34;5021669;28;1488;-57
2020/12/31 03:39:19;;;;;;;;;;;;;;;23.10;31.75;99619.16;5024430;28;1087;-58
2020/12/31 03:41:45;;;;;;;;;;;;;;;23.10;31.57;99608.47;5020412;28;1208;-56
2020/12/31 03:44:10;;;;;;;;;;;;;;;23.10;31.63;99610.31;5022805;28;1254;-56
2020/12/31 03:46:35;;;;;;;;;;;;;;;23.10;31.67;99610.31;5025990;28;1192;-57
2020/12/31 03:49:00;;;;;;;;;;;;;;;23.10;31.60;99608.47;5026226;28;1374;-54
2020/12/31 03:51:25;;;;;;;;;;;;;;;23.09;31.75;99598.81;5025549;28;1902;-57
2020/12/31 03:53:50;;;;;;;;;;;;;;;23.10;31.51;99599.63;5020468;28;1357;-57
2020/12/31 03:56:15;;;;;;;;;;;;;;;23.10;31.65;99600.44;5022316;28;988;-56
2020/12/31 03:58:41;;;;;;;;;;;;;;;23.09;31.67;99593.47;5024793;28;1114;-57
2020/12/31 04:01:06;;;;;;;;;;;;;;;23.09;31.66;99593.47;5018888;28;1592;-54
2020/12/31 04:03:31;;;;;;;;;;;;;;;23.09;31.70;99582.78;5030254;28;1034;-55
2020/12/31 04:05:56;;;;;;;;;;;;;;;23.10;31.57;99581.75;5019955;28;1267;-58
2020/12/31 04:08:21;;;;;;;;;;;;;;;23.10;31.59;99578.25;5021761;28;1144;-57
2020/12/31 04:10:46;;;;;;;;;;;;;;;23.10;31.73;99580.91;5019902;28;999;-57
2020/12/31 04:13:11;;;;;;;;;;;;;;;23.09;31.45;99580.13;5022006;28;1961;-58
2020/12/31 04:15:37;;;;;;;;;;;;;;;23.04;31.58;99563.13;5024531;28;1346;-55
2020/12/31 04:18:02;;;;;;;;;;;;;;;23.09;31.51;99569.41;5023886;28;1094;-56
2020/12/31 04:20:27;;;;;;;;;;;;;;;23.08;31.73;99567.78;5023884;28;1431;-58
2020/12/31 04:22:52;;;;;;;;;;;;;;;23.09;31.50;99569.41;5024402;28;1118;-56
2020/12/31 04:25:17;;;;;;;;;;;;;;;23.08;31.75;99562.44;5015813;28;1423;-58
2020/12/31 04:27:42;;;;;;;;;;;;;;;23.08;31.72;99558.94;5024401;28;1113;-55
2020/12/31 04:30:08;;;;;;;;;;;;;;;23.08;31.69;99554.44;5023894;28;1119;-57
2020/12/31 04:32:33;;;;;;;;;;;;;;;23.09;31.75;99552.56;5016993;28;1960;-57
2020/12/31 04:34:58;;;;;;;;;;;;;;;23.07;31.57;99544.78;5024645;28;1248;-56
2020/12/31 04:37:23;;;;;;;;;;;;;;;23.09;31.67;99547.22;5016959;28;1040;-57
2020/12/31 04:39:49;;;;;;;;;;;;;;;23.08;31.61;99545.56;5023995;28;1035;-58
2020/12/31 04:42:14;;;;;;;;;;;;;;;23.03;31.65;99537.44;5023819;28;1098;-57
2020/12/31 04:44:39;;;;;;;;;;;;;;;23.07;31.68;99552.81;5019884;28;1423;-55
2020/12/31 04:47:04;;;;;;;;;;;;;;;23.08;31.54;99551.75;5023064;28;1066;-56
2020/12/31 04:49:43;;;;;;;;;;;;;;;23.08;31.71;99545.56;5017890;28;1153;-57
2020/12/31 04:52:08;;;;;;;;;;;;;;;23.07;31.53;99550.13;5027216;28;1938;-57
2020/12/31 04:54:37;;;;;;;;;;;;;;;23.09;31.49;99540.00;5016109;28;1374;-55
2020/12/31 04:57:04;;;;;;;;;;;;;;;23.08;31.65;99538.38;5023775;28;1149;-58
2020/12/31 04:59:29;;;;;;;;;;;;;;;23.09;31.51;99541.84;5024376;28;1138;-56
2020/12/31 05:01:55;;;;;;;;;;;;;;;23.08;31.51;99535.72;5026198;28;1098;-57
2020/12/31 05:04:22;;;;;;;;;;;;;;;23.08;31.52;99534.88;5022456;28;1361;-57
2020/12/31 05:06:48;;;;;;;;;;;;;;;23.08;31.39;99543.72;5019681;28;1099;-56
2020/12/31 05:09:17;;;;;;;;;;;;;;;23.08;31.37;99537.56;5023344;28;1101;-54
2020/12/31 05:11:43;;;;;;;;;;;;;;;23.07;31.42;99528.75;5017011;28;2241;-54
2020/12/31 05:14:08;;;;;;;;;;;;;;;23.08;31.54;99529.53;5023661;28;1274;-56
2020/12/31 05:16:33;;;;;;;;;;;;;;;23.08;31.45;99527.69;5019787;28;1466;-57
2020/12/31 05:18:58;;;;;;;;;;;;;;;23.07;31.47;99518.06;5020969;28;1149;-58
2020/12/31 05:21:24;;;;;;;;;;;;;;;23.07;31.38;99514.56;5021023;28;1149;-58
2020/12/31 05:23:49;;;;;;;;;;;;;;;23.08;31.46;99532.22;5017639;28;1332;-56
2020/12/31 05:26:30;;;;;;;;;;;;;;;23.07;31.51;99533.25;5020329;28;1853;-57
2020/12/31 05:28:56;;;;;;;;;;;;;;;23.08;31.63;99521.53;5024580;28;1053;-57
2020/12/31 05:31:21;;;;;;;;;;;;;;;23.07;31.58;99533.25;5019475;28;1890;-56
2020/12/31 05:33:46;;;;;;;;;;;;;;;23.08;31.55;99532.22;5023915;28;1371;-58
2020/12/31 05:36:25;;;;;;;;;;;;;;;23.07;31.61;99527.91;5024759;28;1138;-55
2020/12/31 05:39:02;;;;;;;;;;;;;;;23.07;31.55;99530.59;5023012;28;1062;-56
2020/12/31 05:41:29;;;;;;;;;;;;;;;23.06;31.49;99519.09;5020296;28;1064;-57
2020/12/31 05:43:55;;;;;;;;;;;;;;;23.07;31.63;99525.25;5017934;28;1390;-56
2020/12/31 05:46:20;;;;;;;;;;;;;;;23.06;31.40;99527.13;5022245;28;1060;-56
2020/12/31 05:48:54;;;;;;;;;;;;;;;23.06;31.52;99513.75;5020497;28;1046;-56
2020/12/31 05:51:22;;;;;;;;;;;;;;;23.07;31.28;99512.69;5021846;28;1886;-56
2020/12/31 05:53:49;;;;;;;;;;;;;;;23.06;31.41;99516.44;5020571;28;1284;-56
2020/12/31 05:56:14;;;;;;;;;;;;;;;23.06;31.54;99510.25;5021372;28;1162;-57
2020/12/31 05:58:44;;;;;;;;;;;;;;;23.07;31.40;99525.25;5022574;28;1142;-55
2020/12/31 06:01:11;;;;;;;;;;;;;;;23.07;31.48;99514.56;5016904;28;1058;-55
2020/12/31 06:03:37;;;;;;;;;;;;;;;23.06;31.53;99527.13;5022909;28;1070;-57
2020/12/31 06:06:04;;;;;;;;;;;;;;;23.05;31.47;99516.66;5017723;28;1363;-56
2020/12/31 06:08:30;;;;;;;;;;;;;;;23.06;31.32;99519.09;5023109;28;1107;-57
2020/12/31 06:11:00;;;;;;;;;;;;;;;23.05;31.46;99514.81;5018373;28;1069;-57
2020/12/31 06:13:31;;;;;;;;;;;;;;;23.06;31.26;99518.28;5018259;28;1093;-55
2020/12/31 06:16:01;;;;;;;;;;;;;;;23.03;31.53;99521.41;5027223;28;1255;-58
2020/12/31 06:18:30;;;;;;;;;;;;;;;23.06;31.42;99531.63;5021522;28;1105;-57
2020/12/31 06:21:01;;;;;;;;;;;;;;;23.06;31.54;99526.28;5018566;28;1164;-56
2020/12/31 06:23:34;;;;;;;;;;;;;;;23.05;31.61;99525.50;5021073;28;1086;-55
2020/12/31 06:26:06;;;;;;;;;;;;;;;23.06;31.36;99524.44;5021265;28;1442;-56
2020/12/31 06:28:34;;;;;;;;;;;;;;;23.06;31.45;99528.97;5020529;28;1098;-56
2020/12/31 06:30:59;;;;;;;;;;;;;;;23.05;31.28;99525.50;5024148;28;1894;-56
2020/12/31 06:33:32;;;;;;;;;;;;;;;23.04;31.34;99521.19;5021214;28;1082;-57
2020/12/31 06:36:01;;;;;;;;;;;;;;;23.05;31.33;99525.50;5020560;28;1138;-55
2020/12/31 06:38:29;;;;;;;;;;;;;;;23.05;31.11;99513.97;5019569;28;1876;-57
2020/12/31 06:40:54;;;;;;;;;;;;;;;23.05;31.28;99520.16;5023965;28;936;-57
2020/12/31 06:43:28;;;;;;;;;;;;;;;23.05;31.15;99505.94;5030941;28;1082;-56
2020/12/31 06:45:53;;;;;;;;;;;;;;;23.05;31.17;99509.47;5023556;28;1307;-58
2020/12/31 06:48:25;;;;;;;;;;;;;;;23.04;31.27;99510.50;5024805;28;1063;-58
2020/12/31 06:50:53;;;;;;;;;;;;;;;23.04;31.22;99513.19;5022925;28;984;-56
2020/12/31 06:53:28;;;;;;;;;;;;;;;23.04;31.27;99505.16;5024439;28;1898;-56
2020/12/31 06:55:53;;;;;;;;;;;;;;;23.04;31.07;99518.53;5023125;28;1239;-57
2020/12/31 06:58:22;;;;;;;;;;;;;;;23.05;31.20;99512.13;5024623;28;1119;-58
2020/12/31 07:00:47;;;;;;;;;;;;;;;23.04;31.08;99512.34;5022809;28;1133;-58
2020/12/31 07:03:12;;;;;;;;;;;;;;;23.04;31.09;99512.34;5019546;28;1078;-55
2020/12/31 07:05:37;;;;;;;;;;;;;;;23.04;31.09;99520.38;5023390;28;1226;-57
2020/12/31 07:08:02;;;;;;;;;;;;;;;23.04;30.96;99523.03;5019305;28;1426;-57
2020/12/31 07:10:42;;;;;;;;;;;;;;;23.04;31.08;99523.88;5025003;28;1297;-56
2020/12/31 07:13:27;;;;;;;;;;;;;;;23.04;31.03;99515.84;5020346;28;1965;-57
2020/12/31 07:15:52;;;;;;;;;;;;;;;23.04;30.92;99517.69;5028649;28;1273;-56
2020/12/31 07:18:19;;;;;;;;;;;;;;;23.04;30.81;99521.19;5024790;28;1106;-55
2020/12/31 07:20:45;;;;;;;;;;;;;;;23.03;30.73;99516.06;5018482;28;1106;-57
2020/12/31 07:23:10;;;;;;;;;;;;;;;23.03;30.97;99516.91;5025109;28;1118;-58
2020/12/31 07:25:43;;;;;;;;;;;;;;;23.03;30.98;99505.38;5021060;28;1560;-55
2020/12/31 07:28:15;;;;;;;;;;;;;;;22.96;30.86;99492.94;5024304;28;1150;-58
2020/12/31 07:30:50;;;;;;;;;;;;;;;23.03;30.84;99508.88;5022559;28;1091;-58
2020/12/31 07:33:33;;;;;;;;;;;;;;;23.02;30.77;99509.94;5023157;28;1898;-55
2020/12/31 07:35:58;;;;;;;;;;;;;;;23.03;30.83;99513.41;5025255;28;1306;-55
2020/12/31 07:38:25;;;;;;;;;;;;;;;23.03;30.97;99516.06;5023965;28;1145;-56
2020/12/31 07:40:51;;;;;;;;;;;;;;;22.97;30.74;99501.81;5022325;28;1087;-56
2020/12/31 07:43:23;;;;;;;;;;;;;;;23.03;30.79;99514.22;5017662;28;1126;-56
2020/12/31 07:45:50;;;;;;;;;;;;;;;23.03;30.83;99511.56;5014612;28;1406;-57
2020/12/31 07:48:16;;;;;;;;;;;;;;;23.02;30.82;99506.41;5015711;28;1266;-58
2020/12/31 07:50:42;;;;;;;;;;;;;;;23.02;30.72;99504.59;5014635;28;1168;-57
2020/12/31 07:53:08;;;;;;;;;;;;;;;23.03;30.70;99502.69;5014427;28;1955;-57
2020/12/31 07:55:35;;;;;;;;;;;;;;;23.03;30.78;99502.69;5017120;28;1509;-57
2020/12/31 07:58:00;;;;;;;;;;;;;;;23.02;30.84;99504.59;5017603;28;1050;-55
2020/12/31 08:00:26;;;;;;;;;;;;;;;23.02;30.73;99496.56;5016519;28;1037;-57
2020/12/31 08:02:52;;;;;;;;;;;;;;;23.02;30.60;99496.56;5015932;28;1238;-58
2020/12/31 08:05:18;;;;;;;;;;;;;;;23.02;30.66;99493.88;5016551;28;1343;-57
2020/12/31 08:07:43;;;;;;;;;;;;;;;23.03;30.78;99497.34;5018122;28;1095;-58
2020/12/31 08:10:09;;;;;;;;;;;;;;;23.02;30.80;99501.91;5015810;28;1214;-58
2020/12/31 08:12:35;;;;;;;;;;;;;;;23.03;30.85;99494.69;5015720;28;1965;-57
2020/12/31 08:15:00;;;;;;;;;;;;;;;23.02;30.72;99493.88;5015393;28;1564;-57
2020/12/31 08:17:26;;;;;;;;;;;;;;;23.02;30.76;99501.91;5032223;28;1041;-57
2020/12/31 08:19:52;;;;;;;;;;;;;;;23.02;30.84;99491.22;5017378;28;1083;-58
2020/12/31 08:22:28;;;;;;;;;;;;;;;23.02;30.76;99490.38;5024780;28;1067;-58
2020/12/31 08:24:59;;;;;;;;;;;;;;;23.02;30.85;99499.22;5018213;28;1346;-57
2020/12/31 08:27:25;;;;;;;;;;;;;;;23.03;30.88;99494.69;5022067;28;1285;-57
2020/12/31 08:29:51;;;;;;;;;;;;;;;23.02;30.82;99496.56;5035297;28;1245;-58
2020/12/31 08:32:24;;;;;;;;;;;;;;;23.02;30.92;99493.88;5023185;28;1961;-57
2020/12/31 08:34:52;;;;;;;;;;;;;;;23.01;30.84;99492.25;5022352;28;1372;-56
2020/12/31 08:37:17;;;;;;;;;;;;;;;23.01;30.97;99484.25;5019899;28;1311;-58
2020/12/31 08:39:42;;;;;;;;;;;;;;;23.02;30.91;99483.19;5020327;28;1290;-56
2020/12/31 08:42:12;;;;;;;;;;;;;;;23.02;30.79;99477.84;5024624;28;1130;-58
2020/12/31 08:44:43;;;;;;;;;;;;;;;23.03;30.91;99484.00;5023569;28;1323;-58
2020/12/31 08:47:16;;;;;;;;;;;;;;;23.02;31.23;99485.88;5019876;28;1262;-57
2020/12/31 08:49:48;;;;;;;;;;;;;;;23.02;31.11;99483.19;5020444;28;1333;-58
2020/12/31 08:52:13;;;;;;;;;;;;;;;23.01;30.66;99480.75;5018603;28;1922;-58
2020/12/31 08:54:39;;;;;;;;;;;;;;;23.00;30.74;99485.28;5021223;28;1351;-57
2020/12/31 08:57:13;;;;;;;;;;;;;;;22.99;30.86;99475.66;5020229;28;1178;-57
2020/12/31 08:59:39;;;;;;;;;;;;;;;22.99;30.85;99491.69;5027452;28;976;-57
2020/12/31 09:02:04;;;;;;;;;;;;;;;22.99;30.91;99489.00;5018387;28;1151;-57
2020/12/31 09:04:29;;;;;;;;;;;;;;;22.98;30.97;99487.38;5016800;28;1277;-58
2020/12/31 09:06:57;;;;;;;;;;;;;;;22.98;31.38;99492.72;5024242;28;1054;-57
2020/12/31 09:09:22;;;;;;;;;;;;;;;22.99;31.32;99486.34;5022161;28;1027;-58
2020/12/31 09:11:55;;;;;;;;;;;;;;;23.00;31.18;99487.97;5019136;28;1898;-57
2020/12/31 09:14:20;;;;;;;;;;;;;;;23.04;31.14;99490.97;5026723;28;1674;-57
2020/12/31 09:16:45;;;;;;;;;;;;;;;23.03;31.36;99490.16;5025172;28;1395;-59
2020/12/31 09:19:11;;;;;;;;;;;;;;;23.03;31.44;99489.34;5021485;28;1087;-58
2020/12/31 09:21:36;;;;;;;;;;;;;;;23.03;31.56;99490.16;5024198;28;1084;-60
2020/12/31 09:24:13;;;;;;;;;;;;;;;23.03;31.23;99484.00;5021906;28;1212;-59
2020/12/31 09:26:39;;;;;;;;;;;;;;;23.04;31.30;99480.28;5022313;28;1257;-59
2020/12/31 09:29:07;;;;;;;;;;;;;;;23.03;31.30;99482.16;5020815;28;1101;-55
2020/12/31 09:31:34;;;;;;;;;;;;;;;23.04;31.36;99486.44;5018749;28;1894;-59
2020/12/31 09:33:59;;;;;;;;;;;;;;;23.03;31.42;99474.13;5018455;28;1364;-60
2020/12/31 09:36:25;;;;;;;;;;;;;;;23.04;31.46;99477.59;5023109;28;1075;-60
2020/12/31 09:38:51;;;;;;;;;;;;;;;23.03;31.15;99471.47;5019725;28;1086;-60
2020/12/31 09:41:16;;;;;;;;;;;;;;;23.03;30.99;99473.31;5039191;28;1418;-60
2020/12/31 09:43:41;;;;;;;;;;;;;;;23.03;31.04;99467.97;5020521;28;1287;-59
2020/12/31 09:46:06;;;;;;;;;;;;;;;23.01;30.49;99473.56;5023198;28;1473;-60
2020/12/31 09:48:32;;;;;;;;;;;;;;;22.99;30.40;99470.31;5019300;28;1122;-59
2020/12/31 09:50:57;;;;;;;;;;;;;;;22.95;29.40;99464.59;5022543;28;1388;-58
2020/12/31 09:53:22;;;;;;;;;;;;;;;22.92;29.74;99477.63;5023127;28;1971;-58
2020/12/31 09:55:47;;;;;;;;;;;;;;;22.89;29.55;99470.88;5020066;28;1404;-58
2020/12/31 09:58:12;;;;;;;;;;;;;;;22.86;28.69;99465.22;5019435;28;1468;-58
2020/12/31 10:00:37;;;;;;;;;;;;;;;22.82;28.75;99463.00;5027999;28;1094;-59
2020/12/31 10:03:03;;;;;;;;;;;;;;;22.80;28.49;99457.09;5024381;28;1177;-58
2020/12/31 10:05:28;;;;;;;;;;;;;;;22.77;28.75;99454.91;5020769;28;1247;-60
2020/12/31 10:07:53;;;;;;;;;;;;;;;22.76;28.70;99461.28;5019305;28;1066;-57
2020/12/31 10:10:18;;;;;;;;;;;;;;;22.77;29.29;99454.91;5023241;28;1143;-59
2020/12/31 10:12:43;;;;;;;;;;;;;;;22.79;29.29;99458.13;5017496;28;1971;-60
2020/12/31 10:15:09;;;;;;;;;;;;;;;22.86;29.45;99452.66;5020161;28;1288;-60
2020/12/31 10:17:34;;;;;;;;;;;;;;;22.89;29.75;99456.72;5030293;28;1050;-59
2020/12/31 10:19:59;;;;;;;;;;;;;;;22.89;29.94;99451.38;5029888;28;1456;-56
2020/12/31 10:22:24;;;;;;;;;;;;;;;22.87;29.96;99448.13;5026822;28;1172;-59
2020/12/31 10:24:50;;;;;;;;;;;;;;;22.87;29.90;99438.25;5023862;28;1392;-59
2020/12/31 10:27:15;;;;;;;;;;;;;;;22.87;30.06;99438.25;5022737;28;1416;-59
2020/12/31 10:29:40;;;;;;;;;;;;;;;22.87;30.21;99443.59;5025585;28;1566;-58
2020/12/31 10:32:05;;;;;;;;;;;;;;;22.88;30.60;99441.75;5023484;28;1967;-57
2020/12/31 10:34:31;;;;;;;;;;;;;;;22.88;30.71;99436.41;5026529;28;1320;-56
2020/12/31 10:36:57;;;;;;;;;;;;;;;22.90;31.32;99436.97;5020283;28;1265;-59
2020/12/31 10:39:22;;;;;;;;;;;;;;;22.90;31.41;99435.09;5021831;28;1256;-59
2020/12/31 10:41:48;;;;;;;;;;;;;;;22.90;32.17;99436.97;5026914;28;1404;-59
2020/12/31 10:44:14;;;;;;;;;;;;;;;22.91;32.03;99434.06;5025982;28;1248;-57
2020/12/31 10:46:39;;;;;;;;;;;;;;;22.92;32.24;99432.22;5025437;28;1328;-58
2020/12/31 10:49:04;;;;;;;;;;;;;;;22.92;32.24;99429.53;5022462;28;1587;-56
2020/12/31 10:51:32;;;;;;;;;;;;;;;22.93;31.96;99431.16;5032209;28;1949;-56
2020/12/31 10:53:57;;;;;;;;;;;;;;;22.91;32.34;99412.66;5030312;28;1314;-57
2020/12/31 10:56:22;;;;;;;;;;;;;;;22.92;32.79;99422.31;5034130;28;1150;-58
2020/12/31 10:58:47;;;;;;;;;;;;;;;22.94;33.06;99408.72;5026264;28;1431;-58
2020/12/31 11:01:13;;;;;;;;;;;;;;;22.93;33.11;99415.91;5033199;28;1253;-57
2020/12/31 11:03:38;;;;;;;;;;;;;;;22.95;33.10;99407.69;5032904;28;1091;-59
2020/12/31 11:06:03;;;;;;;;;;;;;;;22.95;33.16;99411.16;5033538;28;1431;-55
2020/12/31 11:08:29;;;;;;;;;;;;;;;22.97;33.11;99400.25;5026483;28;1156;-58
2020/12/31 11:10:54;;;;;;;;;;;;;;;22.96;32.92;99410.09;5031098;28;1214;-58
2020/12/31 11:13:19;;;;;;;;;;;;;;;22.98;32.91;99401.88;5036513;28;1910;-59
2020/12/31 11:15:44;;;;;;;;;;;;;;;22.97;33.22;99390.34;5032480;28;1304;-58
2020/12/31 11:18:09;;;;;;;;;;;;;;;22.98;32.99;99391.16;5024993;28;1380;-58
2020/12/31 11:20:34;;;;;;;;;;;;;;;22.99;32.90;99398.13;5022974;28;1478;-58
2020/12/31 11:23:00;;;;;;;;;;;;;;;22.97;32.35;99395.69;5028245;28;1428;-57
2020/12/31 11:25:25;;;;;;;;;;;;;;;22.97;32.79;99392.22;5027871;28;1217;-59
2020/12/31 11:27:50;;;;;;;;;;;;;;;22.92;32.38;99381.44;5035555;28;1182;-58
2020/12/31 11:30:15;;;;;;;;;;;;;;;22.96;32.10;99387.94;5022638;28;1582;-59
2020/12/31 11:32:41;;;;;;;;;;;;;;;22.95;32.16;99380.97;5027026;28;1949;-58
2020/12/31 11:35:06;;;;;;;;;;;;;;;22.96;32.47;99375.34;5024106;28;1474;-58
2020/12/31 11:37:32;;;;;;;;;;;;;;;22.96;32.33;99375.34;5015030;28;1129;-56
2020/12/31 11:39:57;;;;;;;;;;;;;;;22.96;32.29;99364.66;5014189;28;1270;-59
2020/12/31 11:42:22;;;;;;;;;;;;;;;22.98;32.52;99369.78;5019567;28;1079;-59
2020/12/31 11:44:47;;;;;;;;;;;;;;;22.97;32.42;99357.47;5015220;28;1283;-57
2020/12/31 11:47:12;;;;;;;;;;;;;;;22.98;32.39;99364.44;5025183;28;1113;-58
2020/12/31 11:49:38;;;;;;;;;;;;;;;22.97;32.22;99355.59;5026044;28;1189;-59
2020/12/31 11:52:03;;;;;;;;;;;;;;;22.93;32.23;99337.63;5025972;28;1961;-57
2020/12/31 11:54:28;;;;;;;;;;;;;;;22.97;32.34;99342.25;5018424;28;1359;-58
2020/12/31 11:56:53;;;;;;;;;;;;;;;22.98;32.31;99340.38;5025769;28;1153;-55
2020/12/31 11:59:18;;;;;;;;;;;;;;;22.92;32.20;99334.13;5016148;28;1345;-58
2020/12/31 12:01:53;;;;;;;;;;;;;;;23.00;33.14;99337.47;5023787;28;1133;-59
2020/12/31 12:04:18;;;;;;;;;;;;;;;23.04;33.46;99336.75;5022685;28;1349;-59
2020/12/31 12:06:47;;;;;;;;;;;;;;;23.09;34.42;99339.53;5023732;28;1299;-59
2020/12/31 12:09:13;;;;;;;;;;;;;;;23.12;35.42;99335.56;5016640;28;1147;-59
2020/12/31 12:11:38;;;;;;;;;;;;;;;23.15;36.26;99334.28;5018614;28;1959;-59
2020/12/31 12:14:03;;;;;;;;;;;;;;;23.11;37.45;99325.91;5018867;28;1614;-59
2020/12/31 12:16:28;;;;;;;;;;;;;;;23.10;37.20;99324.28;5026276;28;1147;-59
2020/12/31 12:18:53;;;;;;;;;;;;;;;23.06;36.98;99323.97;5022054;28;1161;-60
2020/12/31 12:21:18;;;;;;;;;;;;;;;23.11;37.02;99320.56;5029293;28;1144;-59
2020/12/31 12:23:44;;;;;;;;;;;;;;;23.09;36.81;99318.16;5015767;28;1373;-57
2020/12/31 12:26:09;;;;;;;;;;;;;;;23.11;36.69;99312.53;5025382;28;1439;-58
2020/12/31 12:28:34;;;;;;;;;;;;;;;23.10;36.76;99314.41;5026064;28;1102;-58
2020/12/31 12:30:59;;;;;;;;;;;;;;;23.11;36.89;99309.88;5031044;28;1142;-58
2020/12/31 12:33:24;;;;;;;;;;;;;;;23.12;36.76;99306.16;5031948;28;1997;-54
2020/12/31 12:35:49;;;;;;;;;;;;;;;23.11;36.81;99304.53;5030504;28;1302;-59
2020/12/31 12:38:14;;;;;;;;;;;;;;;23.11;36.89;99301.84;5015548;28;1118;-57
2020/12/31 12:40:40;;;;;;;;;;;;;;;23.12;36.72;99298.13;5028630;28;1276;-57
2020/12/31 12:43:05;;;;;;;;;;;;;;;23.12;36.91;99292.78;5020086;28;1412;-56
2020/12/31 12:45:30;;;;;;;;;;;;;;;23.15;37.02;99291.50;5019005;28;1484;-58
2020/12/31 12:47:55;;;;;;;;;;;;;;;23.16;36.94;99295.78;5019881;28;1233;-57
2020/12/31 12:50:20;;;;;;;;;;;;;;;23.15;37.26;99292.28;5023914;28;1436;-58
2020/12/31 12:52:46;;;;;;;;;;;;;;;23.15;37.02;99296.84;5015057;28;1897;-59